Aalsmeer, Netherlands
Current Conditions -  °F | °C
As of 9:25 AM on Tuesday 27 Jan 2015 (Local Time) from EHAM Reporting Station
Few Clouds Few Clouds  
Wind Chill: 37°   Ceiling: Unl
Heat Index: 43°   Visibility: 6mi
Dew Point: 39°   Wind: 9mph
Humidity: 87%   Direction: 300°WNW
Pressure: 30.18"   Gusts: NA
Location:  52.26°N, 4.76°E
Report Text: EHAM 270825Z 30008KT 9999 FEW020 06/04 Q1022 NOSIG
Loading
Personal Weather Stations






























Interactive Weather Map New forecast layout! Learn more

10-Day Weather Forecast

Advertisements
Track Severe Weather on mobile